sensor_id;sensor_type;location;lat;lon;timestamp;P1;durP1;ratioP1;P2;durP2;ratioP2
12776;SDS011;6452;41.572;23.732;2022-09-17T00:01:39;7.18;;;3.70;;
12776;SDS011;6452;41.572;23.732;2022-09-17T00:04:24;6.75;;;3.55;;
12776;SDS011;6452;41.572;23.732;2022-09-17T00:07:17;5.65;;;3.00;;
12776;SDS011;6452;41.572;23.732;2022-09-17T00:10:22;10.48;;;3.20;;
12776;SDS011;6452;41.572;23.732;2022-09-17T00:13:28;8.32;;;3.65;;
12776;SDS011;6452;41.572;23.732;2022-09-17T00:16:34;5.22;;;2.70;;
12776;SDS011;6452;41.572;23.732;2022-09-17T00:19:38;8.25;;;3.60;;
12776;SDS011;6452;41.572;23.732;2022-09-17T00:22:39;8.52;;;2.95;;
12776;SDS011;6452;41.572;23.732;2022-09-17T00:25:44;9.73;;;3.13;;
12776;SDS011;6452;41.572;23.732;2022-09-17T00:28:31;8.50;;;2.55;;
12776;SDS011;6452;41.572;23.732;2022-09-17T00:31:16;13.32;;;3.17;;
12776;SDS011;6452;41.572;23.732;2022-09-17T00:33:50;6.18;;;3.20;;
12776;SDS011;6452;41.572;23.732;2022-09-17T00:36:16;12.23;;;3.38;;
12776;SDS011;6452;41.572;23.732;2022-09-17T00:39:21;7.80;;;2.95;;
12776;SDS011;6452;41.572;23.732;2022-09-17T00:41:47;7.90;;;2.90;;
12776;SDS011;6452;41.572;23.732;2022-09-17T00:44:53;5.55;;;3.08;;
12776;SDS011;6452;41.572;23.732;2022-09-17T00:47:42;8.70;;;3.47;;
12776;SDS011;6452;41.572;23.732;2022-09-17T00:53:08;6.78;;;3.00;;
12776;SDS011;6452;41.572;23.732;2022-09-17T00:55:53;4.55;;;2.90;;
12776;SDS011;6452;41.572;23.732;2022-09-17T00:58:41;6.25;;;2.75;;
12776;SDS011;6452;41.572;23.732;2022-09-17T01:01:45;9.55;;;3.33;;
12776;SDS011;6452;41.572;23.732;2022-09-17T01:04:50;4.82;;;2.63;;
12776;SDS011;6452;41.572;23.732;2022-09-17T01:13:41;6.68;;;2.92;;
12776;SDS011;6452;41.572;23.732;2022-09-17T01:22:05;4.53;;;3.15;;
12776;SDS011;6452;41.572;23.732;2022-09-17T01:32:54;5.80;;;2.95;;
12776;SDS011;6452;41.572;23.732;2022-09-17T01:38:45;7.63;;;3.13;;
12776;SDS011;6452;41.572;23.732;2022-09-17T01:44:10;5.88;;;3.10;;
12776;SDS011;6452;41.572;23.732;2022-09-17T01:47:12;4.45;;;3.05;;
12776;SDS011;6452;41.572;23.732;2022-09-17T01:50:17;5.72;;;3.05;;
12776;SDS011;6452;41.572;23.732;2022-09-17T01:53:22;6.50;;;3.03;;
12776;SDS011;6452;41.572;23.732;2022-09-17T01:56:36;5.85;;;3.28;;
12776;SDS011;6452;41.572;23.732;2022-09-17T01:59:45;6.03;;;3.33;;
12776;SDS011;6452;41.572;23.732;2022-09-17T02:05:20;6.40;;;3.10;;
12776;SDS011;6452;41.572;23.732;2022-09-17T02:08:19;7.90;;;3.20;;
12776;SDS011;6452;41.572;23.732;2022-09-17T02:11:07;4.88;;;3.08;;
12776;SDS011;6452;41.572;23.732;2022-09-17T02:16:25;8.55;;;3.17;;
12776;SDS011;6452;41.572;23.732;2022-09-17T02:19:33;6.03;;;3.10;;
12776;SDS011;6452;41.572;23.732;2022-09-17T02:22:47;3.50;;;2.97;;
12776;SDS011;6452;41.572;23.732;2022-09-17T02:25:56;5.78;;;3.38;;
12776;SDS011;6452;41.572;23.732;2022-09-17T02:28:34;5.55;;;3.35;;
12776;SDS011;6452;41.572;23.732;2022-09-17T02:31:28;6.80;;;3.38;;
12776;SDS011;6452;41.572;23.732;2022-09-17T02:34:33;7.50;;;3.60;;
12776;SDS011;6452;41.572;23.732;2022-09-17T02:37:22;9.20;;;3.38;;
12776;SDS011;6452;41.572;23.732;2022-09-17T02:39:48;5.47;;;3.40;;
12776;SDS011;6452;41.572;23.732;2022-09-17T02:51:17;6.13;;;3.10;;
12776;SDS011;6452;41.572;23.732;2022-09-17T02:54:27;7.15;;;3.63;;
12776;SDS011;6452;41.572;23.732;2022-09-17T03:00:38;8.27;;;3.30;;
12776;SDS011;6452;41.572;23.732;2022-09-17T03:03:44;8.15;;;3.50;;
12776;SDS011;6452;41.572;23.732;2022-09-17T03:06:17;7.78;;;3.40;;
12776;SDS011;6452;41.572;23.732;2022-09-17T03:09:18;4.85;;;3.13;;
12776;SDS011;6452;41.572;23.732;2022-09-17T03:12:03;10.40;;;3.50;;
12776;SDS011;6452;41.572;23.732;2022-09-17T03:14:49;4.05;;;3.55;;
12776;SDS011;6452;41.572;23.732;2022-09-17T03:17:36;6.60;;;3.80;;
12776;SDS011;6452;41.572;23.732;2022-09-17T03:20:04;7.32;;;3.58;;
12776;SDS011;6452;41.572;23.732;2022-09-17T03:22:38;4.82;;;3.47;;
12776;SDS011;6452;41.572;23.732;2022-09-17T03:25:24;6.82;;;3.90;;
12776;SDS011;6452;41.572;23.732;2022-09-17T03:28:00;9.43;;;3.85;;
12776;SDS011;6452;41.572;23.732;2022-09-17T03:30:31;6.10;;;3.70;;
12776;SDS011;6452;41.572;23.732;2022-09-17T03:33:20;9.30;;;3.92;;
12776;SDS011;6452;41.572;23.732;2022-09-17T03:35:47;7.80;;;3.65;;
12776;SDS011;6452;41.572;23.732;2022-09-17T03:38:53;7.63;;;3.97;;
12776;SDS011;6452;41.572;23.732;2022-09-17T03:41:38;6.15;;;3.95;;
12776;SDS011;6452;41.572;23.732;2022-09-17T03:44:43;6.47;;;4.45;;
12776;SDS011;6452;41.572;23.732;2022-09-17T03:47:51;7.40;;;4.47;;
12776;SDS011;6452;41.572;23.732;2022-09-17T03:50:56;9.73;;;4.55;;
12776;SDS011;6452;41.572;23.732;2022-09-17T03:53:22;10.48;;;4.68;;
12776;SDS011;6452;41.572;23.732;2022-09-17T03:55:48;6.95;;;4.82;;
12776;SDS011;6452;41.572;23.732;2022-09-17T03:58:35;7.15;;;4.53;;
12776;SDS011;6452;41.572;23.732;2022-09-17T04:01:10;8.23;;;4.07;;
12776;SDS011;6452;41.572;23.732;2022-09-17T04:04:16;7.65;;;4.47;;
12776;SDS011;6452;41.572;23.732;2022-09-17T04:07:21;6.28;;;3.80;;
12776;SDS011;6452;41.572;23.732;2022-09-17T04:10:26;8.32;;;4.20;;
12776;SDS011;6452;41.572;23.732;2022-09-17T04:13:31;8.73;;;3.90;;
12776;SDS011;6452;41.572;23.732;2022-09-17T04:16:36;7.18;;;4.38;;
12776;SDS011;6452;41.572;23.732;2022-09-17T04:19:41;9.77;;;4.10;;
12776;SDS011;6452;41.572;23.732;2022-09-17T04:22:46;8.13;;;5.05;;
12776;SDS011;6452;41.572;23.732;2022-09-17T04:25:51;11.75;;;5.07;;
12776;SDS011;6452;41.572;23.732;2022-09-17T04:28:57;9.20;;;4.65;;
12776;SDS011;6452;41.572;23.732;2022-09-17T04:32:02;10.50;;;5.50;;
12776;SDS011;6452;41.572;23.732;2022-09-17T04:34:28;11.40;;;4.70;;
12776;SDS011;6452;41.572;23.732;2022-09-17T04:36:54;10.13;;;4.90;;
12776;SDS011;6452;41.572;23.732;2022-09-17T04:39:21;11.70;;;5.00;;
12776;SDS011;6452;41.572;23.732;2022-09-17T04:42:26;8.25;;;5.00;;
12776;SDS011;6452;41.572;23.732;2022-09-17T04:45:31;8.68;;;5.13;;
12776;SDS011;6452;41.572;23.732;2022-09-17T04:48:36;11.30;;;5.03;;
12776;SDS011;6452;41.572;23.732;2022-09-17T04:51:24;10.32;;;4.55;;
12776;SDS011;6452;41.572;23.732;2022-09-17T04:53:49;10.73;;;4.60;;
12776;SDS011;6452;41.572;23.732;2022-09-17T04:56:15;10.00;;;4.47;;
12776;SDS011;6452;41.572;23.732;2022-09-17T04:59:20;11.02;;;4.82;;
12776;SDS011;6452;41.572;23.732;2022-09-17T05:02:25;6.30;;;4.47;;
12776;SDS011;6452;41.572;23.732;2022-09-17T05:04:51;9.82;;;4.32;;
12776;SDS011;6452;41.572;23.732;2022-09-17T05:07:39;9.65;;;4.10;;
12776;SDS011;6452;41.572;23.732;2022-09-17T05:10:44;11.10;;;4.60;;
12776;SDS011;6452;41.572;23.732;2022-09-17T05:13:37;12.52;;;4.47;;
12776;SDS011;6452;41.572;23.732;2022-09-17T05:16:23;10.65;;;4.97;;
12776;SDS011;6452;41.572;23.732;2022-09-17T05:19:31;12.80;;;4.70;;
12776;SDS011;6452;41.572;23.732;2022-09-17T05:22:43;11.23;;;5.03;;
12776;SDS011;6452;41.572;23.732;2022-09-17T05:25:45;7.32;;;4.25;;
12776;SDS011;6452;41.572;23.732;2022-09-17T05:28:53;10.30;;;5.10;;
12776;SDS011;6452;41.572;23.732;2022-09-17T05:31:58;5.38;;;4.18;;
12776;SDS011;6452;41.572;23.732;2022-09-17T05:35:03;14.30;;;4.50;;
12776;SDS011;6452;41.572;23.732;2022-09-17T05:37:30;11.50;;;4.43;;
12776;SDS011;6452;41.572;23.732;2022-09-17T05:40:35;8.48;;;4.13;;
12776;SDS011;6452;41.572;23.732;2022-09-17T05:43:41;8.15;;;4.82;;
12776;SDS011;6452;41.572;23.732;2022-09-17T05:46:27;10.30;;;4.35;;
12776;SDS011;6452;41.572;23.732;2022-09-17T05:49:28;15.30;;;6.00;;
12776;SDS011;6452;41.572;23.732;2022-09-17T05:52:36;10.02;;;5.00;;
12776;SDS011;6452;41.572;23.732;2022-09-17T05:55:39;11.70;;;4.90;;
12776;SDS011;6452;41.572;23.732;2022-09-17T05:58:11;8.98;;;4.80;;
12776;SDS011;6452;41.572;23.732;2022-09-17T06:01:16;10.50;;;4.88;;
12776;SDS011;6452;41.572;23.732;2022-09-17T06:04:21;10.43;;;5.25;;
12776;SDS011;6452;41.572;23.732;2022-09-17T06:07:26;11.77;;;5.75;;
12776;SDS011;6452;41.572;23.732;2022-09-17T06:10:31;10.30;;;4.82;;
12776;SDS011;6452;41.572;23.732;2022-09-17T06:13:36;8.40;;;4.20;;
12776;SDS011;6452;41.572;23.732;2022-09-17T06:16:22;12.23;;;4.75;;
12776;SDS011;6452;41.572;23.732;2022-09-17T06:18:48;7.35;;;4.15;;
12776;SDS011;6452;41.572;23.732;2022-09-17T06:21:34;20.88;;;6.43;;
12776;SDS011;6452;41.572;23.732;2022-09-17T06:24:00;14.05;;;5.28;;
12776;SDS011;6452;41.572;23.732;2022-09-17T06:27:05;17.02;;;5.00;;
12776;SDS011;6452;41.572;23.732;2022-09-17T06:30:10;13.88;;;5.82;;
12776;SDS011;6452;41.572;23.732;2022-09-17T06:32:40;11.27;;;6.50;;
12776;SDS011;6452;41.572;23.732;2022-09-17T06:35:26;17.25;;;7.10;;
12776;SDS011;6452;41.572;23.732;2022-09-17T06:38:32;10.35;;;5.93;;
12776;SDS011;6452;41.572;23.732;2022-09-17T06:41:37;9.80;;;6.10;;
12776;SDS011;6452;41.572;23.732;2022-09-17T06:44:41;14.32;;;6.88;;
12776;SDS011;6452;41.572;23.732;2022-09-17T06:47:08;7.63;;;5.30;;
12776;SDS011;6452;41.572;23.732;2022-09-17T06:50:09;14.40;;;5.75;;
12776;SDS011;6452;41.572;23.732;2022-09-17T06:53:14;9.45;;;4.82;;
12776;SDS011;6452;41.572;23.732;2022-09-17T06:56:19;13.25;;;7.00;;
12776;SDS011;6452;41.572;23.732;2022-09-17T06:59:24;7.13;;;4.57;;
12776;SDS011;6452;41.572;23.732;2022-09-17T07:02:29;11.77;;;4.75;;
12776;SDS011;6452;41.572;23.732;2022-09-17T07:05:35;10.02;;;5.63;;
12776;SDS011;6452;41.572;23.732;2022-09-17T07:08:01;16.10;;;5.70;;
12776;SDS011;6452;41.572;23.732;2022-09-17T07:10:31;19.45;;;5.53;;
12776;SDS011;6452;41.572;23.732;2022-09-17T07:13:36;14.13;;;4.90;;
12776;SDS011;6452;41.572;23.732;2022-09-17T07:16:41;9.68;;;3.40;;
12776;SDS011;6452;41.572;23.732;2022-09-17T07:19:46;9.32;;;3.70;;
12776;SDS011;6452;41.572;23.732;2022-09-17T07:22:55;9.55;;;3.70;;
12776;SDS011;6452;41.572;23.732;2022-09-17T07:25:41;12.55;;;3.97;;
12776;SDS011;6452;41.572;23.732;2022-09-17T07:28:46;5.93;;;3.88;;
12776;SDS011;6452;41.572;23.732;2022-09-17T07:31:54;20.83;;;3.72;;
12776;SDS011;6452;41.572;23.732;2022-09-17T07:34:45;13.02;;;3.67;;
12776;SDS011;6452;41.572;23.732;2022-09-17T07:37:11;7.03;;;3.45;;
12776;SDS011;6452;41.572;23.732;2022-09-17T07:40:16;12.50;;;3.55;;
12776;SDS011;6452;41.572;23.732;2022-09-17T07:43:21;6.93;;;3.80;;
12776;SDS011;6452;41.572;23.732;2022-09-17T07:46:26;11.13;;;3.60;;
12776;SDS011;6452;41.572;23.732;2022-09-17T07:48:52;6.65;;;3.40;;
12776;SDS011;6452;41.572;23.732;2022-09-17T07:51:57;6.63;;;3.40;;
12776;SDS011;6452;41.572;23.732;2022-09-17T07:54:43;8.63;;;3.65;;
12776;SDS011;6452;41.572;23.732;2022-09-17T07:57:54;5.93;;;3.10;;
12776;SDS011;6452;41.572;23.732;2022-09-17T08:00:45;9.13;;;3.50;;
12776;SDS011;6452;41.572;23.732;2022-09-17T08:03:51;6.28;;;3.22;;
12776;SDS011;6452;41.572;23.732;2022-09-17T08:06:58;10.93;;;3.53;;
12776;SDS011;6452;41.572;23.732;2022-09-17T08:10:03;10.38;;;3.33;;
12776;SDS011;6452;41.572;23.732;2022-09-17T08:13:08;7.85;;;2.95;;
12776;SDS011;6452;41.572;23.732;2022-09-17T08:16:14;7.43;;;2.72;;
12776;SDS011;6452;41.572;23.732;2022-09-17T08:18:59;9.18;;;3.13;;
12776;SDS011;6452;41.572;23.732;2022-09-17T08:21:25;6.85;;;2.97;;
12776;SDS011;6452;41.572;23.732;2022-09-17T08:24:10;10.32;;;3.58;;
12776;SDS011;6452;41.572;23.732;2022-09-17T08:27:15;10.13;;;3.75;;
12776;SDS011;6452;41.572;23.732;2022-09-17T08:29:41;6.57;;;3.13;;
12776;SDS011;6452;41.572;23.732;2022-09-17T08:32:46;11.57;;;3.70;;
12776;SDS011;6452;41.572;23.732;2022-09-17T08:35:54;9.35;;;3.45;;
12776;SDS011;6452;41.572;23.732;2022-09-17T08:38:42;9.38;;;3.35;;
12776;SDS011;6452;41.572;23.732;2022-09-17T08:42:02;11.50;;;3.20;;
12776;SDS011;6452;41.572;23.732;2022-09-17T08:44:48;6.00;;;3.33;;
12776;SDS011;6452;41.572;23.732;2022-09-17T08:47:32;8.85;;;3.42;;
12776;SDS011;6452;41.572;23.732;2022-09-17T08:50:35;9.85;;;3.10;;
12776;SDS011;6452;41.572;23.732;2022-09-17T08:56:45;8.00;;;3.40;;
12776;SDS011;6452;41.572;23.732;2022-09-17T09:00:08;8.05;;;3.85;;
12776;SDS011;6452;41.572;23.732;2022-09-17T09:06:14;9.68;;;3.70;;
12776;SDS011;6452;41.572;23.732;2022-09-17T09:09:05;5.95;;;3.90;;
12776;SDS011;6452;41.572;23.732;2022-09-17T09:11:59;11.13;;;3.53;;
12776;SDS011;6452;41.572;23.732;2022-09-17T09:15:46;5.70;;;3.22;;
12776;SDS011;6452;41.572;23.732;2022-09-17T09:23:56;9.23;;;2.78;;
12776;SDS011;6452;41.572;23.732;2022-09-17T09:27:04;9.57;;;3.30;;
12776;SDS011;6452;41.572;23.732;2022-09-17T09:30:08;7.40;;;3.22;;
12776;SDS011;6452;41.572;23.732;2022-09-17T09:32:58;8.18;;;3.33;;
12776;SDS011;6452;41.572;23.732;2022-09-17T09:35:34;9.75;;;3.17;;
12776;SDS011;6452;41.572;23.732;2022-09-17T09:41:17;11.95;;;3.13;;
12776;SDS011;6452;41.572;23.732;2022-09-17T09:43:20;12.68;;;3.40;;
12776;SDS011;6452;41.572;23.732;2022-09-17T09:45:57;11.18;;;3.00;;
12776;SDS011;6452;41.572;23.732;2022-09-17T09:48:42;4.10;;;2.70;;
12776;SDS011;6452;41.572;23.732;2022-09-17T09:53:58;5.38;;;3.15;;
12776;SDS011;6452;41.572;23.732;2022-09-17T09:57:11;5.82;;;3.00;;
12776;SDS011;6452;41.572;23.732;2022-09-17T09:59:18;9.32;;;3.35;;
12776;SDS011;6452;41.572;23.732;2022-09-17T10:01:44;5.43;;;2.30;;
12776;SDS011;6452;41.572;23.732;2022-09-17T10:04:18;8.48;;;3.05;;
12776;SDS011;6452;41.572;23.732;2022-09-17T10:06:44;10.18;;;2.97;;
12776;SDS011;6452;41.572;23.732;2022-09-17T10:09:13;9.05;;;3.47;;
12776;SDS011;6452;41.572;23.732;2022-09-17T10:11:39;6.10;;;2.92;;
12776;SDS011;6452;41.572;23.732;2022-09-17T10:14:19;6.03;;;2.95;;
12776;SDS011;6452;41.572;23.732;2022-09-17T10:16:46;6.07;;;2.53;;
12776;SDS011;6452;41.572;23.732;2022-09-17T10:19:17;9.52;;;3.03;;
12776;SDS011;6452;41.572;23.732;2022-09-17T10:21:51;6.55;;;2.53;;
12776;SDS011;6452;41.572;23.732;2022-09-17T10:26:47;7.38;;;2.28;;
12776;SDS011;6452;41.572;23.732;2022-09-17T10:29:14;11.43;;;2.35;;
12776;SDS011;6452;41.572;23.732;2022-09-17T10:32:41;6.57;;;2.60;;
12776;SDS011;6452;41.572;23.732;2022-09-17T10:34:35;12.57;;;2.60;;
12776;SDS011;6452;41.572;23.732;2022-09-17T10:37:02;7.03;;;2.65;;
12776;SDS011;6452;41.572;23.732;2022-09-17T10:41:55;10.00;;;2.80;;
12776;SDS011;6452;41.572;23.732;2022-09-17T10:44:22;10.35;;;2.70;;
12776;SDS011;6452;41.572;23.732;2022-09-17T10:46:48;5.07;;;2.65;;
12776;SDS011;6452;41.572;23.732;2022-09-17T10:49:37;5.88;;;2.90;;
12776;SDS011;6452;41.572;23.732;2022-09-17T10:52:09;4.50;;;2.60;;
12776;SDS011;6452;41.572;23.732;2022-09-17T10:57:20;8.05;;;4.57;;
12776;SDS011;6452;41.572;23.732;2022-09-17T11:05:18;10.02;;;4.28;;
12776;SDS011;6452;41.572;23.732;2022-09-17T11:07:40;7.78;;;2.78;;
12776;SDS011;6452;41.572;23.732;2022-09-17T11:10:22;5.57;;;3.47;;
12776;SDS011;6452;41.572;23.732;2022-09-17T11:12:59;7.20;;;3.28;;
12776;SDS011;6452;41.572;23.732;2022-09-17T11:25:55;4.55;;;1.35;;
12776;SDS011;6452;41.572;23.732;2022-09-17T11:33:35;3.65;;;1.52;;
12776;SDS011;6452;41.572;23.732;2022-09-17T11:36:09;2.53;;;1.80;;
12776;SDS011;6452;41.572;23.732;2022-09-17T11:38:40;1.40;;;1.10;;
12776;SDS011;6452;41.572;23.732;2022-09-17T11:41:12;2.08;;;1.50;;
12776;SDS011;6452;41.572;23.732;2022-09-17T11:44:11;1.50;;;1.40;;
12776;SDS011;6452;41.572;23.732;2022-09-17T11:47:01;1.77;;;1.05;;
12776;SDS011;6452;41.572;23.732;2022-09-17T11:49:29;1.77;;;0.90;;
12776;SDS011;6452;41.572;23.732;2022-09-17T11:52:04;2.13;;;1.23;;
12776;SDS011;6452;41.572;23.732;2022-09-17T11:54:36;3.08;;;1.40;;
12776;SDS011;6452;41.572;23.732;2022-09-17T11:57:11;5.78;;;1.30;;
12776;SDS011;6452;41.572;23.732;2022-09-17T12:02:18;1.17;;;1.00;;
12776;SDS011;6452;41.572;23.732;2022-09-17T12:09:43;1.13;;;1.00;;
12776;SDS011;6452;41.572;23.732;2022-09-17T12:12:20;1.80;;;0.95;;
12776;SDS011;6452;41.572;23.732;2022-09-17T12:15:02;1.30;;;1.08;;
12776;SDS011;6452;41.572;23.732;2022-09-17T12:17:33;5.00;;;1.20;;
12776;SDS011;6452;41.572;23.732;2022-09-17T12:20:03;2.03;;;1.30;;
12776;SDS011;6452;41.572;23.732;2022-09-17T12:22:32;1.52;;;1.40;;
12776;SDS011;6452;41.572;23.732;2022-09-17T12:25:00;4.53;;;1.48;;
12776;SDS011;6452;41.572;23.732;2022-09-17T12:32:49;2.30;;;1.30;;
12776;SDS011;6452;41.572;23.732;2022-09-17T12:40:25;1.50;;;1.40;;
12776;SDS011;6452;41.572;23.732;2022-09-17T12:47:55;1.90;;;1.63;;
12776;SDS011;6452;41.572;23.732;2022-09-17T12:50:41;3.70;;;1.70;;
12776;SDS011;6452;41.572;23.732;2022-09-17T12:53:44;6.75;;;1.83;;
12776;SDS011;6452;41.572;23.732;2022-09-17T12:56:04;3.17;;;1.70;;
12776;SDS011;6452;41.572;23.732;2022-09-17T12:58:39;6.47;;;1.90;;
12776;SDS011;6452;41.572;23.732;2022-09-17T13:01:23;5.03;;;2.05;;
12776;SDS011;6452;41.572;23.732;2022-09-17T13:03:57;4.70;;;2.35;;
12776;SDS011;6452;41.572;23.732;2022-09-17T13:06:31;7.35;;;1.58;;
12776;SDS011;6452;41.572;23.732;2022-09-17T13:14:04;4.97;;;1.63;;
12776;SDS011;6452;41.572;23.732;2022-09-17T13:16:36;7.18;;;2.10;;
12776;SDS011;6452;41.572;23.732;2022-09-17T13:22:01;7.40;;;1.77;;
12776;SDS011;6452;41.572;23.732;2022-09-17T13:24:25;9.13;;;1.67;;
12776;SDS011;6452;41.572;23.732;2022-09-17T13:26:54;4.43;;;1.77;;
12776;SDS011;6452;41.572;23.732;2022-09-17T13:34:54;7.57;;;2.20;;
12776;SDS011;6452;41.572;23.732;2022-09-17T13:37:24;6.03;;;2.10;;
12776;SDS011;6452;41.572;23.732;2022-09-17T13:39:51;5.43;;;2.83;;
12776;SDS011;6452;41.572;23.732;2022-09-17T13:42:18;5.07;;;1.92;;
12776;SDS011;6452;41.572;23.732;2022-09-17T13:44:52;6.20;;;2.58;;
12776;SDS011;6452;41.572;23.732;2022-09-17T13:47:27;3.90;;;1.90;;
12776;SDS011;6452;41.572;23.732;2022-09-17T13:49:55;6.05;;;1.98;;
12776;SDS011;6452;41.572;23.732;2022-09-17T13:54:58;5.85;;;2.10;;
12776;SDS011;6452;41.572;23.732;2022-09-17T13:57:24;8.05;;;2.20;;
12776;SDS011;6452;41.572;23.732;2022-09-17T13:59:57;9.80;;;2.47;;
12776;SDS011;6452;41.572;23.732;2022-09-17T14:02:31;4.57;;;2.22;;
12776;SDS011;6452;41.572;23.732;2022-09-17T14:08:08;8.88;;;1.90;;
12776;SDS011;6452;41.572;23.732;2022-09-17T14:10:39;6.63;;;2.30;;
12776;SDS011;6452;41.572;23.732;2022-09-17T14:15:54;7.18;;;2.60;;
12776;SDS011;6452;41.572;23.732;2022-09-17T14:20:54;8.35;;;2.42;;
12776;SDS011;6452;41.572;23.732;2022-09-17T14:23:30;10.90;;;2.72;;
12776;SDS011;6452;41.572;23.732;2022-09-17T14:25:57;10.38;;;2.90;;
12776;SDS011;6452;41.572;23.732;2022-09-17T14:28:33;8.38;;;2.30;;
12776;SDS011;6452;41.572;23.732;2022-09-17T14:31:14;4.70;;;2.42;;
12776;SDS011;6452;41.572;23.732;2022-09-17T14:33:42;8.68;;;2.30;;
12776;SDS011;6452;41.572;23.732;2022-09-17T14:36:10;5.25;;;2.75;;
12776;SDS011;6452;41.572;23.732;2022-09-17T14:38:50;8.82;;;2.42;;
12776;SDS011;6452;41.572;23.732;2022-09-17T14:41:28;5.82;;;2.25;;
12776;SDS011;6452;41.572;23.732;2022-09-17T15:45:06;5.07;;;2.20;;
12776;SDS011;6452;41.572;23.732;2022-09-17T15:47:33;3.15;;;1.85;;
12776;SDS011;6452;41.572;23.732;2022-09-17T15:50:10;1.65;;;1.48;;
12776;SDS011;6452;41.572;23.732;2022-09-17T15:52:36;3.00;;;1.80;;
12776;SDS011;6452;41.572;23.732;2022-09-17T15:55:26;10.20;;;5.60;;
12776;SDS011;6452;41.572;23.732;2022-09-17T15:57:54;11.43;;;4.90;;
12776;SDS011;6452;41.572;23.732;2022-09-17T16:00:20;9.18;;;4.90;;
12776;SDS011;6452;41.572;23.732;2022-09-17T16:02:47;6.20;;;5.57;;
12776;SDS011;6452;41.572;23.732;2022-09-17T16:07:43;5.93;;;3.80;;
12776;SDS011;6452;41.572;23.732;2022-09-17T16:10:09;3.28;;;2.95;;
12776;SDS011;6452;41.572;23.732;2022-09-17T16:12:35;7.72;;;3.38;;
12776;SDS011;6452;41.572;23.732;2022-09-17T16:15:02;4.32;;;2.70;;
12776;SDS011;6452;41.572;23.732;2022-09-17T16:17:41;2.97;;;2.78;;
12776;SDS011;6452;41.572;23.732;2022-09-17T16:20:17;5.05;;;2.83;;
12776;SDS011;6452;41.572;23.732;2022-09-17T16:22:44;3.35;;;3.00;;
12776;SDS011;6452;41.572;23.732;2022-09-17T16:25:12;3.50;;;2.85;;
12776;SDS011;6452;41.572;23.732;2022-09-17T16:27:42;2.50;;;2.30;;
12776;SDS011;6452;41.572;23.732;2022-09-17T16:30:12;2.75;;;2.20;;
12776;SDS011;6452;41.572;23.732;2022-09-17T16:32:38;3.00;;;2.42;;
12776;SDS011;6452;41.572;23.732;2022-09-17T16:35:04;6.82;;;3.00;;
12776;SDS011;6452;41.572;23.732;2022-09-17T16:37:31;6.65;;;2.80;;
12776;SDS011;6452;41.572;23.732;2022-09-17T16:39:57;3.10;;;1.90;;
12776;SDS011;6452;41.572;23.732;2022-09-17T16:42:28;5.10;;;2.83;;
12776;SDS011;6452;41.572;23.732;2022-09-17T16:44:54;7.28;;;2.50;;
12776;SDS011;6452;41.572;23.732;2022-09-17T16:47:20;6.88;;;4.93;;
12776;SDS011;6452;41.572;23.732;2022-09-17T16:49:50;7.05;;;3.40;;
12776;SDS011;6452;41.572;23.732;2022-09-17T16:52:16;9.07;;;2.83;;
12776;SDS011;6452;41.572;23.732;2022-09-17T16:54:43;6.47;;;3.13;;
12776;SDS011;6452;41.572;23.732;2022-09-17T16:57:09;5.53;;;2.97;;
12776;SDS011;6452;41.572;23.732;2022-09-17T16:59:35;6.28;;;3.65;;
12776;SDS011;6452;41.572;23.732;2022-09-17T17:02:01;6.72;;;3.05;;
12776;SDS011;6452;41.572;23.732;2022-09-17T17:04:28;5.63;;;2.30;;
12776;SDS011;6452;41.572;23.732;2022-09-17T17:06:53;6.65;;;2.85;;
12776;SDS011;6452;41.572;23.732;2022-09-17T17:09:20;4.15;;;3.40;;
12776;SDS011;6452;41.572;23.732;2022-09-17T17:11:46;4.30;;;2.25;;
12776;SDS011;6452;41.572;23.732;2022-09-17T17:14:12;5.00;;;2.60;;
12776;SDS011;6452;41.572;23.732;2022-09-17T17:16:38;1.92;;;1.83;;
12776;SDS011;6452;41.572;23.732;2022-09-17T17:19:06;4.20;;;1.92;;
12776;SDS011;6452;41.572;23.732;2022-09-17T17:21:32;2.90;;;2.07;;
12776;SDS011;6452;41.572;23.732;2022-09-17T17:23:58;5.05;;;2.20;;
12776;SDS011;6452;41.572;23.732;2022-09-17T17:26:24;4.23;;;2.83;;
12776;SDS011;6452;41.572;23.732;2022-09-17T17:28:51;7.07;;;3.05;;
12776;SDS011;6452;41.572;23.732;2022-09-17T17:31:17;4.13;;;2.80;;
12776;SDS011;6452;41.572;23.732;2022-09-17T17:33:42;4.78;;;2.47;;
12776;SDS011;6452;41.572;23.732;2022-09-17T17:36:09;5.05;;;2.58;;
12776;SDS011;6452;41.572;23.732;2022-09-17T17:38:35;7.57;;;2.55;;
12776;SDS011;6452;41.572;23.732;2022-09-17T17:41:02;2.85;;;2.50;;
12776;SDS011;6452;41.572;23.732;2022-09-17T17:43:28;5.20;;;3.38;;
12776;SDS011;6452;41.572;23.732;2022-09-17T17:45:54;4.57;;;3.92;;
12776;SDS011;6452;41.572;23.732;2022-09-17T17:48:20;7.47;;;3.30;;
12776;SDS011;6452;41.572;23.732;2022-09-17T17:50:46;5.18;;;4.00;;
12776;SDS011;6452;41.572;23.732;2022-09-17T17:53:13;6.20;;;3.58;;
12776;SDS011;6452;41.572;23.732;2022-09-17T17:55:39;3.88;;;3.22;;
12776;SDS011;6452;41.572;23.732;2022-09-17T17:58:05;2.67;;;2.27;;
12776;SDS011;6452;41.572;23.732;2022-09-17T18:00:31;3.10;;;2.33;;
12776;SDS011;6452;41.572;23.732;2022-09-17T18:02:58;2.63;;;2.42;;
12776;SDS011;6452;41.572;23.732;2022-09-17T18:05:24;4.43;;;3.42;;
12776;SDS011;6452;41.572;23.732;2022-09-17T18:07:50;5.10;;;3.45;;
12776;SDS011;6452;41.572;23.732;2022-09-17T18:10:16;3.85;;;2.80;;
12776;SDS011;6452;41.572;23.732;2022-09-17T18:12:46;4.75;;;2.58;;
12776;SDS011;6452;41.572;23.732;2022-09-17T18:15:15;3.33;;;2.00;;
12776;SDS011;6452;41.572;23.732;2022-09-17T18:17:41;3.67;;;2.65;;
12776;SDS011;6452;41.572;23.732;2022-09-17T18:20:07;1.95;;;1.80;;
12776;SDS011;6452;41.572;23.732;2022-09-17T18:22:34;1.92;;;1.58;;
12776;SDS011;6452;41.572;23.732;2022-09-17T18:25:01;1.85;;;1.30;;
12776;SDS011;6452;41.572;23.732;2022-09-17T18:27:27;2.40;;;1.90;;
12776;SDS011;6452;41.572;23.732;2022-09-17T18:29:53;2.38;;;1.45;;
12776;SDS011;6452;41.572;23.732;2022-09-17T18:32:24;2.22;;;2.03;;
12776;SDS011;6452;41.572;23.732;2022-09-17T18:34:50;6.22;;;2.00;;
12776;SDS011;6452;41.572;23.732;2022-09-17T18:37:16;2.22;;;2.13;;
12776;SDS011;6452;41.572;23.732;2022-09-17T18:39:42;4.18;;;2.42;;
12776;SDS011;6452;41.572;23.732;2022-09-17T18:42:08;4.22;;;3.03;;
12776;SDS011;6452;41.572;23.732;2022-09-17T18:44:34;4.65;;;2.63;;
12776;SDS011;6452;41.572;23.732;2022-09-17T18:47:00;4.30;;;2.42;;
12776;SDS011;6452;41.572;23.732;2022-09-17T18:49:31;3.53;;;2.42;;
12776;SDS011;6452;41.572;23.732;2022-09-17T18:51:57;2.90;;;1.70;;
12776;SDS011;6452;41.572;23.732;2022-09-17T18:54:23;3.20;;;1.90;;
12776;SDS011;6452;41.572;23.732;2022-09-17T18:56:49;2.30;;;1.83;;
12776;SDS011;6452;41.572;23.732;2022-09-17T18:59:15;2.60;;;1.20;;
12776;SDS011;6452;41.572;23.732;2022-09-17T19:01:41;4.82;;;1.30;;
12776;SDS011;6452;41.572;23.732;2022-09-17T19:04:07;2.05;;;1.10;;
12776;SDS011;6452;41.572;23.732;2022-09-17T19:06:33;3.25;;;1.70;;
12776;SDS011;6452;41.572;23.732;2022-09-17T19:08:59;3.97;;;1.73;;
12776;SDS011;6452;41.572;23.732;2022-09-17T19:11:26;2.70;;;1.23;;
12776;SDS011;6452;41.572;23.732;2022-09-17T19:13:52;1.23;;;1.13;;
12776;SDS011;6452;41.572;23.732;2022-09-17T19:16:18;1.35;;;1.25;;
12776;SDS011;6452;41.572;23.732;2022-09-17T19:18:44;3.70;;;1.30;;
12776;SDS011;6452;41.572;23.732;2022-09-17T19:21:14;2.50;;;2.30;;
12776;SDS011;6452;41.572;23.732;2022-09-17T19:24:00;4.68;;;2.80;;
12776;SDS011;6452;41.572;23.732;2022-09-17T19:26:27;2.95;;;2.20;;
12776;SDS011;6452;41.572;23.732;2022-09-17T19:28:54;2.95;;;2.03;;
12776;SDS011;6452;41.572;23.732;2022-09-17T19:31:22;2.03;;;1.70;;
12776;SDS011;6452;41.572;23.732;2022-09-17T19:33:48;2.08;;;1.95;;
12776;SDS011;6452;41.572;23.732;2022-09-17T19:36:18;3.28;;;1.33;;